createdAt,value
2022-10-23T00:00:51.915Z,88
2022-10-23T00:02:51.897Z,88
2022-10-23T00:04:49.999Z,88
2022-10-23T00:06:51.523Z,88
2022-10-23T00:08:56.608Z,88
2022-10-23T00:10:51.773Z,89
2022-10-23T00:12:49.159Z,89
2022-10-23T00:14:51.879Z,89
2022-10-23T00:18:54.841Z,89
2022-10-23T00:20:53.428Z,89
2022-10-23T00:22:52.091Z,89
2022-10-23T00:24:51.834Z,89
2022-10-23T00:26:51.748Z,89
2022-10-23T00:28:55.951Z,89
2022-10-23T00:30:51.758Z,88
2022-10-23T00:32:54.937Z,88
2022-10-23T00:34:55.144Z,88
2022-10-23T00:36:51.798Z,88
2022-10-23T00:38:51.822Z,89
2022-10-23T00:40:52.306Z,89
2022-10-23T00:42:50.981Z,89
2022-10-23T00:44:51.871Z,89
2022-10-23T00:46:51.752Z,89
2022-10-23T00:48:51.917Z,89
2022-10-23T00:50:51.845Z,89
2022-10-23T00:52:51.489Z,90
2022-10-23T00:54:51.462Z,89
2022-10-23T00:56:58.831Z,89
2022-10-23T00:58:51.812Z,89
2022-10-23T01:00:51.738Z,89
2022-10-23T01:02:51.742Z,89
2022-10-23T01:04:51.844Z,89
2022-10-23T01:06:51.891Z,89
2022-10-23T01:08:50.457Z,89
2022-10-23T01:10:51.812Z,90
2022-10-23T01:12:53.434Z,90
2022-10-23T01:14:51.732Z,90
2022-10-23T01:16:55.483Z,90
2022-10-23T01:18:51.875Z,90
2022-10-23T01:20:49.193Z,90
2022-10-23T01:22:55.554Z,90
2022-10-23T01:24:51.772Z,90
2022-10-23T01:26:51.887Z,91
2022-10-23T01:28:50.987Z,91
2022-10-23T01:30:51.848Z,91
2022-10-23T01:32:58.907Z,91
2022-10-23T01:36:51.883Z,91
2022-10-23T01:38:51.854Z,91
2022-10-23T01:40:49.189Z,90
2022-10-23T01:42:50.535Z,90
2022-10-23T01:44:51.867Z,90
2022-10-23T01:46:49.156Z,90
2022-10-23T01:48:50.982Z,90
2022-10-23T01:50:51.717Z,90
2022-10-23T01:52:55.003Z,90
2022-10-23T01:54:55.413Z,90
2022-10-23T01:56:51.854Z,90
2022-10-23T01:58:51.781Z,90
2022-10-23T02:00:52.256Z,90
2022-10-23T02:02:52.602Z,90
2022-10-23T02:04:55.808Z,90
2022-10-23T02:06:51.739Z,90
2022-10-23T02:08:52.398Z,90
2022-10-23T02:10:52.303Z,90
2022-10-23T02:12:51.842Z,90
2022-10-23T02:14:52.080Z,90
2022-10-23T02:16:51.820Z,90
2022-10-23T02:18:51.829Z,90
2022-10-23T02:20:51.960Z,90
2022-10-23T02:22:49.075Z,90
2022-10-23T02:24:51.822Z,90
2022-10-23T02:26:49.514Z,90
2022-10-23T02:28:51.797Z,90
2022-10-23T02:30:51.720Z,90
2022-10-23T02:32:51.777Z,91
2022-10-23T02:34:50.676Z,91
2022-10-23T02:36:52.702Z,91
2022-10-23T02:38:51.824Z,91
2022-10-23T02:40:51.450Z,91
2022-10-23T02:42:51.730Z,91
2022-10-23T02:44:51.806Z,91
2022-10-23T02:46:54.937Z,91
2022-10-23T02:48:52.114Z,91
2022-10-23T02:50:53.384Z,91
2022-10-23T02:52:53.456Z,91
2022-10-23T02:54:55.486Z,91
2022-10-23T02:56:51.696Z,91
2022-10-23T02:58:51.859Z,91
2022-10-23T03:00:51.029Z,91
2022-10-23T03:02:55.063Z,91
2022-10-23T03:04:51.944Z,91
2022-10-23T03:08:51.878Z,91
2022-10-23T03:10:55.744Z,91
2022-10-23T03:12:51.803Z,91
2022-10-23T03:14:51.066Z,91
2022-10-23T03:16:51.881Z,91
2022-10-23T03:18:58.633Z,91
2022-10-23T03:20:51.814Z,91
2022-10-23T03:22:49.198Z,91
2022-10-23T03:24:51.825Z,91
2022-10-23T03:26:51.557Z,91
2022-10-23T03:28:49.277Z,91
2022-10-23T03:30:51.909Z,91
2022-10-23T03:32:51.609Z,91
2022-10-23T03:34:53.448Z,91
2022-10-23T03:36:51.819Z,91
2022-10-23T03:38:52.004Z,91
2022-10-23T03:40:51.315Z,91
2022-10-23T03:42:51.846Z,91
2022-10-23T03:44:51.803Z,91
2022-10-23T03:46:49.241Z,91
2022-10-23T03:48:52.197Z,91
2022-10-23T03:50:51.625Z,91
2022-10-23T03:52:51.861Z,91
2022-10-23T03:54:51.061Z,91
2022-10-23T03:56:52.491Z,91
2022-10-23T03:58:51.654Z,91
2022-10-23T04:00:52.143Z,91
2022-10-23T04:02:52.114Z,91
2022-10-23T04:04:51.801Z,91
2022-10-23T04:06:52.071Z,90
2022-10-23T04:10:55.597Z,90
2022-10-23T04:12:55.300Z,90
2022-10-23T04:14:51.887Z,90
2022-10-23T04:16:50.729Z,90
2022-10-23T04:18:51.856Z,90
2022-10-23T04:20:49.773Z,90
2022-10-23T04:24:49.949Z,90
2022-10-23T04:26:51.898Z,91
2022-10-23T04:28:51.850Z,91
2022-10-23T04:30:55.426Z,91
2022-10-23T04:32:51.864Z,91
2022-10-23T04:34:52.092Z,90
2022-10-23T04:36:58.779Z,90
2022-10-23T04:38:51.742Z,90
2022-10-23T04:40:58.573Z,91
2022-10-23T04:42:51.814Z,91
2022-10-23T04:44:51.917Z,91
2022-10-23T04:46:51.961Z,91
2022-10-23T04:48:51.909Z,91
2022-10-23T04:50:51.665Z,91
2022-10-23T04:52:51.742Z,91
2022-10-23T04:54:49.785Z,91
2022-10-23T04:56:53.887Z,91
2022-10-23T04:58:51.828Z,91
2022-10-23T05:00:56.846Z,91
2022-10-23T05:02:51.839Z,91
2022-10-23T05:04:55.038Z,91
2022-10-23T05:06:51.366Z,91
2022-10-23T05:08:50.054Z,91
2022-10-23T05:10:52.329Z,91
2022-10-23T05:12:51.936Z,91
2022-10-23T05:14:50.426Z,91
2022-10-23T05:16:55.076Z,91
2022-10-23T05:18:51.893Z,91
2022-10-23T05:20:55.404Z,91
2022-10-23T05:22:51.816Z,91
2022-10-23T05:24:51.617Z,91
2022-10-23T05:26:54.841Z,91
2022-10-23T05:28:55.782Z,91
2022-10-23T05:30:50.550Z,91
2022-10-23T05:32:55.166Z,91
2022-10-23T05:34:51.865Z,91
2022-10-23T05:36:54.759Z,91
2022-10-23T05:38:55.041Z,91
2022-10-23T05:40:59.012Z,91
2022-10-23T05:42:51.855Z,91
2022-10-23T05:44:55.012Z,91
2022-10-23T05:46:51.615Z,91
2022-10-23T05:48:52.153Z,91
2022-10-23T05:50:52.145Z,91
2022-10-23T05:52:52.249Z,91
2022-10-23T05:54:51.836Z,91
2022-10-23T05:56:49.274Z,91
2022-10-23T05:58:51.823Z,91
2022-10-23T06:00:52.102Z,91
2022-10-23T06:02:51.848Z,91
2022-10-23T06:04:51.913Z,91
2022-10-23T06:06:51.882Z,91
2022-10-23T06:08:55.067Z,91
2022-10-23T06:10:52.042Z,91
2022-10-23T06:12:51.072Z,91
2022-10-23T06:14:52.229Z,91
2022-10-23T06:16:51.949Z,91
2022-10-23T06:18:51.823Z,91
2022-10-23T06:20:49.177Z,91
2022-10-23T06:22:51.836Z,91
2022-10-23T06:24:50.985Z,91
2022-10-23T06:26:52.120Z,90
2022-10-23T06:28:58.731Z,90
2022-10-23T06:30:52.354Z,90
2022-10-23T06:32:51.834Z,90
2022-10-23T06:34:51.430Z,90
2022-10-23T06:36:56.791Z,90
2022-10-23T06:38:55.131Z,90
2022-10-23T06:40:51.819Z,90
2022-10-23T06:42:51.023Z,90
2022-10-23T06:44:51.858Z,90
2022-10-23T06:46:51.864Z,89
2022-10-23T06:48:51.637Z,89
2022-10-23T06:50:49.802Z,89
2022-10-23T06:52:52.302Z,89
2022-10-23T06:54:51.096Z,89
2022-10-23T06:56:51.861Z,89
2022-10-23T06:58:55.208Z,89
2022-10-23T07:00:51.963Z,89
2022-10-23T07:02:51.907Z,88
2022-10-23T07:04:51.913Z,88
2022-10-23T07:06:51.895Z,88
2022-10-23T07:08:51.993Z,88
2022-10-23T07:10:51.905Z,87
2022-10-23T07:12:49.673Z,87
2022-10-23T07:14:51.879Z,87
2022-10-23T07:16:55.162Z,86
2022-10-23T07:18:51.879Z,86
2022-10-23T07:20:51.883Z,86
2022-10-23T07:22:51.831Z,85
2022-10-23T07:24:51.870Z,85
2022-10-23T07:28:52.064Z,78
2022-10-23T07:30:55.065Z,80
2022-10-23T07:32:52.487Z,80
2022-10-23T07:34:49.514Z,80
2022-10-23T07:36:52.253Z,80
2022-10-23T07:38:55.065Z,80
2022-10-23T07:40:54.696Z,80
2022-10-23T07:42:58.717Z,79
2022-10-23T07:44:55.019Z,79
2022-10-23T07:46:52.073Z,79
2022-10-23T07:48:49.207Z,79
2022-10-23T07:50:55.839Z,80
2022-10-23T07:52:51.958Z,80
2022-10-23T07:54:50.927Z,81
2022-10-23T07:56:51.686Z,81
2022-10-23T08:02:49.951Z,80
2022-10-23T08:04:52.111Z,80
2022-10-23T08:06:51.521Z,79
2022-10-23T08:08:52.800Z,79
2022-10-23T08:10:52.315Z,78
2022-10-23T08:12:51.950Z,78
2022-10-23T08:14:52.174Z,77
2022-10-23T08:16:51.543Z,78
2022-10-23T08:18:52.140Z,79
2022-10-23T08:20:52.484Z,79
2022-10-23T08:22:54.942Z,79
2022-10-23T08:24:52.175Z,79
2022-10-23T08:26:52.045Z,79
2022-10-23T08:28:51.914Z,78
2022-10-23T08:30:55.080Z,79
2022-10-23T08:35:57.178Z,79
2022-10-23T08:37:53.329Z,79
2022-10-23T08:42:44.094Z,78
2022-10-23T08:48:30.656Z,79
2022-10-23T08:52:29.043Z,79
2022-10-23T08:54:29.000Z,80
2022-10-23T08:56:28.593Z,80
2022-10-23T08:58:28.525Z,79
2022-10-23T09:00:32.166Z,78
2022-10-23T09:02:26.007Z,78
2022-10-23T09:04:28.737Z,78
2022-10-23T09:06:31.748Z,76
2022-10-23T09:08:31.683Z,78
2022-10-23T09:10:23.279Z,78
2022-10-23T09:14:32.438Z,78
2022-10-23T09:16:28.137Z,78
2022-10-23T09:18:29.237Z,78
2022-10-23T09:20:30.523Z,78
2022-10-23T09:22:28.742Z,78
2022-10-23T09:24:33.361Z,78
2022-10-23T09:26:29.160Z,77
2022-10-23T09:28:28.669Z,77
2022-10-23T09:32:32.612Z,77
2022-10-23T09:34:35.868Z,78
2022-10-23T09:36:28.843Z,79
2022-10-23T09:38:30.570Z,80
2022-10-23T09:40:29.172Z,80
2022-10-23T09:42:29.589Z,80
2022-10-23T09:44:28.365Z,80
2022-10-23T09:46:28.499Z,79
2022-10-23T09:48:29.307Z,79
2022-10-23T09:50:28.207Z,79
2022-10-23T09:52:30.228Z,79
2022-10-23T09:56:28.403Z,78
2022-10-23T09:58:28.980Z,78
2022-10-23T10:00:32.839Z,78
2022-10-23T10:02:28.196Z,78
2022-10-23T10:04:27.771Z,78
2022-10-23T10:06:30.396Z,78
2022-10-23T10:08:33.251Z,78
2022-10-23T10:10:29.105Z,78
2022-10-23T10:12:29.520Z,79
2022-10-23T10:14:32.496Z,78
2022-10-23T10:16:32.191Z,78
2022-10-23T10:20:24.128Z,78
2022-10-23T10:22:28.260Z,77
2022-10-23T10:24:31.422Z,78
2022-10-23T10:26:32.541Z,78
2022-10-23T10:28:32.489Z,78
2022-10-23T10:30:29.739Z,77
2022-10-23T10:32:28.136Z,78
2022-10-23T10:34:29.266Z,78
2022-10-23T10:36:37.321Z,79
2022-10-23T10:38:32.194Z,79
2022-10-23T10:40:32.789Z,80
2022-10-23T10:44:28.775Z,80
2022-10-23T10:46:23.243Z,81
2022-10-23T10:48:30.355Z,80
2022-10-23T10:50:29.797Z,80
2022-10-23T10:52:29.131Z,81
2022-10-23T10:54:29.541Z,81
2022-10-23T10:56:29.289Z,81
2022-10-23T10:58:32.268Z,81
2022-10-23T11:00:32.807Z,80
2022-10-23T11:02:29.784Z,81
2022-10-23T11:04:28.386Z,80
2022-10-23T11:06:29.703Z,80
2022-10-23T11:08:29.201Z,80
2022-10-23T11:10:29.727Z,80
2022-10-23T11:12:30.343Z,80
2022-10-23T11:14:29.618Z,80
2022-10-23T11:16:39.014Z,80
2022-10-23T11:20:29.509Z,79
2022-10-23T11:22:32.679Z,80
2022-10-23T11:24:29.679Z,81
2022-10-23T11:26:32.911Z,81
2022-10-23T11:28:29.648Z,79
2022-10-23T11:30:28.918Z,80
2022-10-23T11:32:27.482Z,80
2022-10-23T11:34:32.781Z,79
2022-10-23T11:36:32.420Z,80
2022-10-23T11:38:29.709Z,80
2022-10-23T11:40:32.443Z,80
2022-10-23T11:42:32.418Z,80
2022-10-23T11:44:32.405Z,81
2022-10-23T11:46:27.672Z,80
2022-10-23T11:48:33.141Z,80
2022-10-23T11:50:29.110Z,80
2022-10-23T11:52:29.131Z,80
2022-10-23T11:56:28.397Z,81
2022-10-23T11:58:33.423Z,81
2022-10-23T12:02:26.804Z,81
2022-10-23T12:04:29.988Z,81
2022-10-23T12:08:29.015Z,81
2022-10-23T12:10:29.713Z,81
2022-10-23T12:16:32.936Z,81
2022-10-23T12:20:30.170Z,81
2022-10-23T12:22:29.787Z,81
2022-10-23T12:24:29.680Z,81
2022-10-23T12:26:35.648Z,81
2022-10-23T12:28:32.947Z,81
2022-10-23T12:32:29.038Z,81
2022-10-23T12:34:30.002Z,82
2022-10-23T12:36:29.921Z,82
2022-10-23T12:38:34.103Z,82
2022-10-23T12:40:31.346Z,82
2022-10-23T12:42:29.946Z,82
2022-10-23T12:44:33.023Z,83
2022-10-23T12:46:31.824Z,82
2022-10-23T12:48:33.783Z,82
2022-10-23T12:50:30.273Z,83
2022-10-23T12:52:30.380Z,83
2022-10-23T12:54:30.652Z,83
2022-10-23T12:56:31.739Z,83
2022-10-23T12:58:28.762Z,82
2022-10-23T13:00:30.301Z,83
2022-10-23T13:02:30.469Z,83
2022-10-23T13:04:28.037Z,83
2022-10-23T13:06:31.531Z,83
2022-10-23T13:08:28.566Z,83
2022-10-23T13:10:28.232Z,83
2022-10-23T13:12:30.872Z,83
2022-10-23T13:14:30.068Z,83
2022-10-23T13:16:27.906Z,83
2022-10-23T13:18:29.661Z,83
2022-10-23T13:20:29.240Z,83
2022-10-23T13:22:28.813Z,83
2022-10-23T13:24:30.260Z,83
2022-10-23T13:26:28.354Z,83
2022-10-23T13:28:29.562Z,83
2022-10-23T13:30:30.936Z,83
2022-10-23T13:32:27.300Z,83
2022-10-23T13:34:30.339Z,83
2022-10-23T13:36:29.986Z,83
2022-10-23T13:38:30.177Z,83
2022-10-23T13:40:27.262Z,83
2022-10-23T13:44:28.431Z,82
2022-10-23T13:46:28.663Z,82
2022-10-23T13:48:33.272Z,82
2022-10-23T13:50:30.520Z,82
2022-10-23T13:52:30.606Z,82
2022-10-23T13:54:31.310Z,82
2022-10-23T13:56:27.666Z,83
2022-10-23T13:58:33.545Z,83
2022-10-23T14:00:30.961Z,83
2022-10-23T14:02:33.647Z,82
2022-10-23T14:04:36.722Z,82
2022-10-23T14:08:30.370Z,83
2022-10-23T14:10:29.107Z,83
2022-10-23T14:14:27.502Z,83
2022-10-23T14:16:30.503Z,83
2022-10-23T14:18:30.663Z,83
2022-10-23T14:20:30.261Z,83
2022-10-23T14:22:29.209Z,83
2022-10-23T14:24:29.615Z,83
2022-10-23T14:26:31.040Z,83
2022-10-23T14:28:33.652Z,83
2022-10-23T14:30:30.806Z,83
2022-10-23T14:32:29.635Z,83
2022-10-23T14:34:28.972Z,83
2022-10-23T14:36:34.225Z,83
2022-10-23T14:38:30.671Z,84
2022-10-23T14:40:30.454Z,83
2022-10-23T14:42:33.807Z,83
2022-10-23T14:44:34.103Z,84
2022-10-23T14:46:27.171Z,84
2022-10-23T14:48:30.830Z,84
2022-10-23T14:50:27.736Z,84
2022-10-23T14:52:28.288Z,84
2022-10-23T14:54:30.436Z,84
2022-10-23T14:56:30.663Z,84
2022-10-23T14:58:34.730Z,84
2022-10-23T15:00:33.820Z,84
2022-10-23T15:02:25.771Z,84
2022-10-23T15:04:30.565Z,84
2022-10-23T15:06:30.921Z,84
2022-10-23T15:08:33.734Z,84
2022-10-23T15:10:30.611Z,84
2022-10-23T15:12:30.871Z,84
2022-10-23T15:14:30.075Z,84
2022-10-23T15:16:27.369Z,84
2022-10-23T15:20:29.972Z,85
2022-10-23T15:22:29.091Z,85
2022-10-23T15:24:30.492Z,85
2022-10-23T15:26:31.088Z,85
2022-10-23T15:28:30.508Z,85
2022-10-23T15:30:29.891Z,85
2022-10-23T15:32:30.367Z,85
2022-10-23T15:34:31.241Z,84
2022-10-23T15:36:30.428Z,85
2022-10-23T15:38:30.707Z,85
2022-10-23T15:40:30.408Z,85
2022-10-23T15:42:29.603Z,85
2022-10-23T15:44:30.710Z,85
2022-10-23T15:46:33.618Z,85
2022-10-23T15:48:36.844Z,85
2022-10-23T15:50:27.563Z,85
2022-10-23T15:52:27.338Z,85
2022-10-23T15:54:31.867Z,85
2022-10-23T15:56:33.946Z,85
2022-10-23T15:58:29.903Z,85
2022-10-23T16:00:30.457Z,85
2022-10-23T16:02:27.551Z,85
2022-10-23T16:04:30.454Z,85
2022-10-23T16:06:30.580Z,85
2022-10-23T16:08:29.979Z,85
2022-10-23T16:10:30.387Z,85
2022-10-23T16:12:33.922Z,85
2022-10-23T16:14:26.951Z,85
2022-10-23T16:16:28.021Z,85
2022-10-23T16:20:29.471Z,85
2022-10-23T16:22:29.714Z,85
2022-10-23T16:24:29.006Z,85
2022-10-23T16:26:27.027Z,85
2022-10-23T16:28:30.113Z,85
2022-10-23T16:30:30.752Z,85
2022-10-23T16:32:30.560Z,85
2022-10-23T16:34:30.552Z,85
2022-10-23T16:36:31.305Z,85
2022-10-23T16:38:30.186Z,85
2022-10-23T16:40:30.714Z,85
2022-10-23T16:42:34.158Z,85
2022-10-23T16:44:30.821Z,85
2022-10-23T16:46:29.514Z,85
2022-10-23T16:50:30.593Z,85
2022-10-23T16:52:30.661Z,85
2022-10-23T16:54:30.477Z,85
2022-10-23T16:56:33.994Z,86
2022-10-23T16:58:29.707Z,86
2022-10-23T17:00:31.046Z,86
2022-10-23T17:02:37.036Z,86
2022-10-23T17:04:33.686Z,85
2022-10-23T17:06:30.713Z,85
2022-10-23T17:08:27.593Z,85
2022-10-23T17:10:27.893Z,85
2022-10-23T17:12:30.797Z,85
2022-10-23T17:14:40.517Z,85
2022-10-23T17:16:27.523Z,85
2022-10-23T17:18:31.306Z,85
2022-10-23T17:20:27.726Z,85
2022-10-23T17:22:29.001Z,85
2022-10-23T17:24:33.974Z,85
2022-10-23T17:28:34.499Z,85
2022-10-23T17:30:30.688Z,85
2022-10-23T17:32:26.865Z,85
2022-10-23T17:34:30.817Z,85
2022-10-23T17:38:27.452Z,86
2022-10-23T17:40:30.907Z,86
2022-10-23T17:44:27.374Z,86
2022-10-23T17:46:28.324Z,86
2022-10-23T17:48:31.077Z,87
2022-10-23T17:50:30.792Z,87
2022-10-23T17:52:30.771Z,87
2022-10-23T17:54:30.820Z,87
2022-10-23T17:56:30.785Z,87
2022-10-23T17:58:29.964Z,87
2022-10-23T18:02:33.597Z,87
2022-10-23T18:04:28.484Z,87
2022-10-23T18:06:30.589Z,87
2022-10-23T18:08:27.814Z,87
2022-10-23T18:10:34.328Z,88
2022-10-23T18:12:30.640Z,88
2022-10-23T18:14:28.594Z,88
2022-10-23T18:16:26.303Z,87
2022-10-23T18:18:34.232Z,87
2022-10-23T18:20:27.691Z,87
2022-10-23T18:22:27.617Z,87
2022-10-23T18:24:31.000Z,87
2022-10-23T18:26:30.562Z,86
2022-10-23T18:28:28.093Z,86
2022-10-23T18:30:31.068Z,86
2022-10-23T18:32:29.305Z,85
2022-10-23T18:34:28.374Z,85
2022-10-23T18:38:30.508Z,87
2022-10-23T18:40:34.157Z,86
2022-10-23T18:42:30.383Z,86
2022-10-23T18:44:29.396Z,86
2022-10-23T18:46:27.638Z,86
2022-10-23T18:50:27.884Z,86
2022-10-23T18:52:30.840Z,86
2022-10-23T18:54:31.415Z,86
2022-10-23T18:56:31.044Z,86
2022-10-23T18:58:27.680Z,86
2022-10-23T19:00:28.977Z,86
2022-10-23T19:02:27.749Z,86
2022-10-23T19:04:28.172Z,86
2022-10-23T19:06:30.897Z,86
2022-10-23T19:08:27.601Z,86
2022-10-23T19:10:25.855Z,86
2022-10-23T19:12:31.287Z,86
2022-10-23T19:14:30.591Z,85
2022-10-23T19:16:27.537Z,85
2022-10-23T19:18:34.196Z,85
2022-10-23T19:22:33.992Z,85
2022-10-23T19:24:30.796Z,85
2022-10-23T19:26:31.052Z,86
2022-10-23T19:28:27.890Z,85
2022-10-23T19:30:30.799Z,85
2022-10-23T19:32:29.204Z,86
2022-10-23T19:34:30.887Z,86
2022-10-23T19:36:30.979Z,86
2022-10-23T19:38:31.277Z,87
2022-10-23T19:40:30.344Z,87
2022-10-23T19:42:31.290Z,87
2022-10-23T19:44:31.354Z,87
2022-10-23T19:46:30.799Z,87
2022-10-23T19:48:31.134Z,87
2022-10-23T19:50:31.118Z,87
2022-10-23T19:52:31.850Z,87
2022-10-23T19:56:34.082Z,88
2022-10-23T19:58:30.779Z,88
2022-10-23T20:00:30.735Z,87
2022-10-23T20:02:30.381Z,87
2022-10-23T20:04:31.876Z,88
2022-10-23T20:06:30.478Z,87
2022-10-23T20:08:32.632Z,87
2022-10-23T20:10:34.084Z,88
2022-10-23T20:12:32.020Z,88
2022-10-23T20:14:29.850Z,88
2022-10-23T20:16:28.092Z,88
2022-10-23T20:18:32.061Z,88
2022-10-23T20:20:31.899Z,88
2022-10-23T20:22:29.926Z,88
2022-10-23T20:24:35.437Z,88
2022-10-23T20:26:30.422Z,88
2022-10-23T20:28:30.777Z,88
2022-10-23T20:30:27.767Z,88
2022-10-23T20:32:31.706Z,88
2022-10-23T20:34:30.694Z,88
2022-10-23T20:36:27.784Z,88
2022-10-23T20:38:29.224Z,88
2022-10-23T20:40:26.134Z,88
2022-10-23T20:42:30.758Z,88
2022-10-23T20:44:30.989Z,88
2022-10-23T20:46:32.174Z,88
2022-10-23T20:48:28.055Z,88
2022-10-23T20:50:27.835Z,88
2022-10-23T20:52:30.619Z,88
2022-10-23T20:54:30.478Z,88
2022-10-23T20:56:27.688Z,88
2022-10-23T20:58:27.540Z,88
2022-10-23T21:00:31.151Z,88
2022-10-23T21:02:30.892Z,88
2022-10-23T21:04:31.856Z,88
2022-10-23T21:06:46.085Z,88
2022-10-23T21:08:25.712Z,88
2022-10-23T21:10:31.049Z,88
2022-10-23T21:12:31.820Z,88
2022-10-23T21:14:30.875Z,88
2022-10-23T21:16:28.427Z,88
2022-10-23T21:20:37.467Z,87
2022-10-23T21:22:30.852Z,87
2022-10-23T21:24:27.603Z,86
2022-10-23T21:26:31.471Z,86
2022-10-23T21:28:30.691Z,86
2022-10-23T21:30:34.144Z,85
2022-10-23T21:32:27.657Z,84
2022-10-23T21:34:31.136Z,83
2022-10-23T21:36:43.457Z,83
2022-10-23T21:38:28.864Z,83
2022-10-23T21:40:31.107Z,83
2022-10-23T21:44:27.822Z,82
2022-10-23T21:46:24.704Z,82
2022-10-23T21:48:27.432Z,81
2022-10-23T21:50:29.090Z,81
2022-10-23T21:52:27.873Z,81
2022-10-23T21:54:27.497Z,81
2022-10-23T21:56:31.268Z,81
2022-10-23T21:58:34.210Z,80
2022-10-23T22:00:32.362Z,80
2022-10-23T22:02:31.283Z,80
2022-10-23T22:04:31.023Z,80
2022-10-23T22:06:35.100Z,80
2022-10-23T22:08:30.792Z,80
2022-10-23T22:10:31.451Z,79
2022-10-23T22:12:34.417Z,79
2022-10-23T22:14:31.792Z,79
2022-10-23T22:16:37.334Z,78
2022-10-23T22:18:27.525Z,78
2022-10-23T22:20:34.643Z,79
2022-10-23T22:22:31.541Z,78
2022-10-23T22:24:31.718Z,77
2022-10-23T22:26:27.770Z,77
2022-10-23T22:28:31.034Z,75
2022-10-23T22:30:30.707Z,76
2022-10-23T22:32:30.225Z,75
2022-10-23T22:34:48.176Z,75
2022-10-23T22:36:24.285Z,75
2022-10-23T22:38:28.349Z,75
2022-10-23T22:40:31.274Z,75
2022-10-23T22:42:27.445Z,75
2022-10-23T22:44:31.220Z,75
2022-10-23T22:46:30.589Z,75
2022-10-23T22:48:32.133Z,75
2022-10-23T22:50:28.103Z,76
2022-10-23T22:52:27.450Z,76
2022-10-23T22:54:28.632Z,76
2022-10-23T22:56:39.972Z,76
2022-10-23T22:58:30.663Z,76
2022-10-23T23:00:33.915Z,77
2022-10-23T23:02:32.494Z,77
2022-10-23T23:04:37.619Z,77
2022-10-23T23:06:31.125Z,77
2022-10-23T23:08:28.101Z,77
2022-10-23T23:10:33.923Z,77
2022-10-23T23:12:34.005Z,78
2022-10-23T23:14:31.174Z,79
2022-10-23T23:16:30.853Z,80
2022-10-23T23:18:31.858Z,80
2022-10-23T23:20:28.110Z,81
2022-10-23T23:22:30.328Z,81
2022-10-23T23:24:34.011Z,81
2022-10-23T23:26:27.595Z,82
2022-10-23T23:28:27.948Z,83
2022-10-23T23:30:30.527Z,83
2022-10-23T23:32:28.632Z,84
2022-10-23T23:34:31.197Z,84
2022-10-23T23:36:24.756Z,84
2022-10-23T23:38:40.861Z,85
2022-10-23T23:40:29.229Z,84
2022-10-23T23:42:33.746Z,84
2022-10-23T23:44:28.757Z,85
2022-10-23T23:46:31.374Z,85
2022-10-23T23:48:33.627Z,85
2022-10-23T23:50:31.497Z,86
2022-10-23T23:52:33.993Z,86
2022-10-23T23:54:27.827Z,86
2022-10-23T23:56:34.491Z,86
2022-10-23T23:58:27.276Z,87
